createdAt,value
2018-05-18T00:01:12.358Z,8.67
2018-05-18T00:03:39.918Z,6.97
2018-05-18T00:06:07.474Z,7.50
2018-05-18T00:08:35.139Z,7.13
2018-05-18T00:11:02.776Z,7.50
2018-05-18T00:13:30.396Z,8.40
2018-05-18T00:15:57.964Z,8.03
2018-05-18T00:18:25.520Z,7.77
2018-05-18T00:20:53.137Z,7.03
2018-05-18T00:23:20.701Z,8.73
2018-05-18T00:25:48.269Z,7.77
2018-05-18T00:28:15.824Z,7.10
2018-05-18T00:30:43.411Z,7.03
2018-05-18T00:33:10.968Z,7.23
2018-05-18T00:35:38.584Z,7.17
2018-05-18T00:38:06.146Z,8.57
2018-05-18T00:40:33.772Z,8.10
2018-05-18T00:43:01.341Z,7.27
2018-05-18T00:45:29.171Z,8.00
2018-05-18T00:47:56.793Z,7.03
2018-05-18T00:50:24.399Z,7.27
2018-05-18T00:52:51.935Z,7.17
2018-05-18T00:55:31.450Z,7.63
2018-05-18T00:57:59.021Z,7.13
2018-05-18T01:00:26.590Z,7.90
2018-05-18T01:02:54.208Z,7.20
2018-05-18T01:05:21.832Z,7.33
2018-05-18T01:07:49.471Z,7.30
2018-05-18T01:10:17.104Z,7.10
2018-05-18T01:12:44.641Z,6.60
2018-05-18T01:15:12.208Z,6.57
2018-05-18T01:17:39.829Z,7.37
2018-05-18T01:20:07.401Z,9.20
2018-05-18T01:22:35.054Z,14.40
2018-05-18T01:25:02.678Z,18.77
2018-05-18T01:27:30.258Z,18.67
2018-05-18T01:29:57.877Z,17.47
2018-05-18T01:32:25.520Z,15.80
2018-05-18T01:34:53.152Z,16.40
2018-05-18T01:37:20.723Z,16.13
2018-05-18T01:39:48.269Z,16.77
2018-05-18T01:42:15.912Z,17.13
2018-05-18T01:44:43.533Z,17.70
2018-05-18T01:47:11.158Z,15.10
2018-05-18T01:49:38.739Z,14.87
2018-05-18T01:52:06.323Z,13.23
2018-05-18T01:54:33.901Z,13.93
2018-05-18T01:57:01.533Z,16.43
2018-05-18T01:59:29.224Z,16.07
2018-05-18T02:01:56.781Z,12.73
2018-05-18T02:04:24.372Z,9.77
2018-05-18T02:06:51.933Z,9.57
2018-05-18T02:09:19.579Z,10.20
2018-05-18T02:11:47.143Z,9.80
2018-05-18T02:14:14.746Z,9.87
2018-05-18T02:16:42.308Z,8.90
2018-05-18T02:19:09.937Z,8.70
2018-05-18T02:21:37.508Z,8.10
2018-05-18T02:24:05.064Z,7.60
2018-05-18T02:26:32.637Z,6.93
2018-05-18T02:29:00.205Z,6.23
2018-05-18T02:31:27.922Z,7.87
2018-05-18T02:33:55.550Z,5.60
2018-05-18T02:36:23.113Z,6.60
2018-05-18T02:38:50.741Z,5.80
2018-05-18T02:41:18.301Z,5.80
2018-05-18T02:43:45.872Z,6.17
2018-05-18T02:46:13.502Z,7.80
2018-05-18T02:48:41.136Z,9.00
2018-05-18T02:51:08.696Z,7.83
2018-05-18T02:53:36.313Z,8.53
2018-05-18T02:56:03.950Z,9.53
2018-05-18T02:58:31.516Z,10.90
2018-05-18T03:00:59.092Z,12.67
2018-05-18T03:03:26.730Z,11.47
2018-05-18T03:05:54.430Z,10.97
2018-05-18T03:08:21.996Z,11.37
2018-05-18T03:10:49.633Z,10.80
2018-05-18T03:13:17.209Z,10.80
2018-05-18T03:15:44.854Z,11.60
2018-05-18T03:18:12.433Z,12.70
2018-05-18T03:20:40.061Z,13.53
2018-05-18T03:23:07.632Z,11.07
2018-05-18T03:25:35.193Z,11.10
2018-05-18T03:28:02.871Z,8.93
2018-05-18T03:30:30.436Z,9.87
2018-05-18T03:32:58.069Z,11.07
2018-05-18T03:35:25.705Z,10.33
2018-05-18T03:37:53.251Z,9.80
2018-05-18T03:40:20.825Z,12.83
2018-05-18T03:42:48.403Z,10.93
2018-05-18T03:45:15.976Z,13.93
2018-05-18T03:47:43.597Z,13.57
2018-05-18T03:50:11.220Z,13.00
2018-05-18T03:52:38.792Z,14.60
2018-05-18T03:55:06.364Z,11.90
2018-05-18T03:57:33.943Z,10.80
2018-05-18T04:00:01.569Z,10.43
2018-05-18T04:02:40.850Z,8.73
2018-05-18T04:05:20.114Z,7.30
2018-05-18T04:07:59.509Z,8.30
2018-05-18T04:10:27.084Z,8.37
2018-05-18T04:12:54.652Z,6.33
2018-05-18T04:15:22.230Z,6.00
2018-05-18T04:17:49.797Z,8.53
2018-05-18T04:20:17.373Z,7.90
2018-05-18T04:22:44.948Z,6.93
2018-05-18T04:25:12.517Z,7.60
2018-05-18T04:27:40.080Z,8.60
2018-05-18T04:30:07.792Z,9.00
2018-05-18T04:32:35.302Z,7.50
2018-05-18T04:35:02.865Z,6.27
2018-05-18T04:37:30.434Z,6.20
2018-05-18T04:39:58.002Z,6.17
2018-05-18T04:42:25.597Z,6.40
2018-05-18T04:44:53.171Z,6.47
2018-05-18T04:47:20.764Z,5.10
2018-05-18T04:49:48.459Z,5.50
2018-05-18T04:52:16.029Z,4.97
2018-05-18T04:54:43.650Z,4.90
2018-05-18T04:57:11.252Z,5.33
2018-05-18T04:59:38.803Z,4.93
2018-05-18T05:02:06.357Z,4.20
2018-05-18T05:04:33.974Z,4.93
2018-05-18T05:07:01.590Z,4.33
2018-05-18T05:09:29.152Z,4.80
2018-05-18T05:11:56.783Z,4.00
2018-05-18T05:14:24.354Z,3.97
2018-05-18T05:16:51.977Z,3.40
2018-05-18T05:19:19.537Z,2.83
2018-05-18T05:21:47.097Z,3.00
2018-05-18T05:24:14.671Z,3.60
2018-05-18T05:26:42.237Z,2.70
2018-05-18T05:29:09.913Z,3.63
2018-05-18T05:31:37.474Z,3.50
2018-05-18T05:34:05.017Z,2.40
2018-05-18T05:36:32.703Z,2.70
2018-05-18T05:39:00.256Z,3.13
2018-05-18T05:41:27.819Z,3.63
2018-05-18T05:43:57.260Z,3.90
2018-05-18T05:46:24.876Z,3.20
2018-05-18T05:48:52.699Z,2.93
2018-05-18T05:51:20.257Z,2.90
2018-05-18T05:53:47.862Z,2.93
2018-05-18T05:56:15.472Z,3.50
2018-05-18T05:58:43.093Z,3.33
2018-05-18T06:01:10.652Z,3.03
2018-05-18T06:03:38.216Z,4.33
2018-05-18T06:06:05.773Z,5.27
2018-05-18T06:08:33.315Z,3.80
2018-05-18T06:11:00.917Z,2.90
2018-05-18T06:13:28.492Z,6.63
2018-05-18T06:15:56.111Z,4.33
2018-05-18T06:18:23.734Z,4.70
2018-05-18T06:20:51.350Z,4.90
2018-05-18T06:23:18.986Z,4.13
2018-05-18T06:25:46.561Z,3.97
2018-05-18T06:28:14.172Z,3.10
2018-05-18T06:30:41.804Z,3.20
2018-05-18T06:33:09.365Z,2.83
2018-05-18T06:35:36.988Z,3.13
2018-05-18T06:38:04.535Z,2.80
2018-05-18T06:40:32.147Z,2.90
2018-05-18T06:42:59.757Z,2.83
2018-05-18T06:45:27.373Z,2.77
2018-05-18T06:47:54.936Z,2.73
2018-05-18T06:50:22.559Z,2.73
2018-05-18T06:52:50.184Z,3.10
2018-05-18T06:55:17.861Z,3.77
2018-05-18T06:57:45.436Z,3.50
2018-05-18T07:00:13.000Z,2.83
2018-05-18T07:02:40.556Z,3.30
2018-05-18T07:05:08.229Z,3.17
2018-05-18T07:07:35.805Z,3.20
2018-05-18T07:10:03.435Z,2.70
2018-05-18T07:12:31.079Z,3.20
2018-05-18T07:14:58.632Z,2.40
2018-05-18T07:17:26.253Z,3.30
2018-05-18T07:19:53.909Z,2.17
2018-05-18T07:22:21.562Z,2.30
2018-05-18T07:24:49.189Z,2.90
2018-05-18T07:27:16.745Z,2.13
2018-05-18T07:29:44.358Z,2.30
2018-05-18T07:32:12.075Z,2.43
2018-05-18T07:34:39.638Z,2.50
2018-05-18T07:37:07.261Z,2.23
2018-05-18T07:39:34.898Z,2.60
2018-05-18T07:42:02.560Z,2.37
2018-05-18T07:44:30.129Z,2.17
2018-05-18T07:46:57.732Z,2.53
2018-05-18T07:49:25.303Z,2.20
2018-05-18T07:51:52.882Z,2.50
2018-05-18T07:54:20.519Z,1.50
2018-05-18T07:56:48.143Z,2.13
2018-05-18T07:59:15.762Z,2.00
2018-05-18T08:01:43.446Z,2.00
2018-05-18T08:04:11.045Z,2.43
2018-05-18T08:06:38.673Z,1.93
2018-05-18T08:09:06.277Z,1.93
2018-05-18T08:11:33.893Z,1.63
2018-05-18T08:14:01.484Z,1.60
2018-05-18T08:16:29.105Z,1.80
2018-05-18T08:18:56.735Z,1.53
2018-05-18T08:21:24.297Z,1.80
2018-05-18T08:23:51.953Z,1.60
2018-05-18T08:26:19.577Z,1.27
2018-05-18T08:28:58.967Z,1.67
2018-05-18T08:31:26.585Z,1.33
2018-05-18T08:33:54.159Z,1.20
2018-05-18T08:36:21.720Z,1.33
2018-05-18T08:38:49.287Z,1.23
2018-05-18T08:41:16.855Z,1.27
2018-05-18T08:43:44.464Z,1.07
2018-05-18T08:46:12.021Z,0.83
2018-05-18T08:48:39.581Z,0.90
2018-05-18T08:51:07.153Z,1.00
2018-05-18T08:53:34.712Z,0.90
2018-05-18T08:56:02.393Z,1.23
2018-05-18T08:58:29.953Z,1.03
2018-05-18T09:00:57.514Z,1.30
2018-05-18T09:03:25.062Z,1.23
2018-05-18T09:05:52.613Z,1.33
2018-05-18T09:08:20.228Z,1.23
2018-05-18T09:10:47.845Z,1.37
2018-05-18T09:13:15.396Z,1.67
2018-05-18T09:15:43.021Z,1.43
2018-05-18T09:18:10.765Z,1.00
2018-05-18T09:20:38.333Z,1.10
2018-05-18T09:23:05.949Z,1.20
2018-05-18T09:25:33.560Z,0.93
2018-05-18T09:28:01.117Z,1.30
2018-05-18T09:30:28.673Z,1.43
2018-05-18T09:32:56.236Z,1.30
2018-05-18T09:35:23.921Z,1.20
2018-05-18T09:37:51.500Z,1.20
2018-05-18T09:40:19.064Z,0.97
2018-05-18T09:42:46.678Z,1.17
2018-05-18T09:45:14.259Z,1.17
2018-05-18T09:47:41.821Z,1.30
2018-05-18T09:50:09.485Z,1.27
2018-05-18T09:52:37.058Z,1.20
2018-05-18T09:55:04.694Z,1.20
2018-05-18T09:57:32.237Z,1.17
2018-05-18T09:59:59.876Z,1.47
2018-05-18T10:02:27.449Z,1.03
2018-05-18T10:04:55.018Z,1.17
2018-05-18T10:07:22.657Z,1.23
2018-05-18T10:09:50.213Z,1.23
2018-05-18T10:12:17.889Z,1.20
2018-05-18T10:14:45.525Z,1.30
2018-05-18T10:17:13.204Z,1.20
2018-05-18T10:19:40.861Z,1.60
2018-05-18T10:22:08.419Z,1.70
2018-05-18T10:24:36.005Z,1.33
2018-05-18T10:27:03.636Z,1.20
2018-05-18T10:29:31.176Z,1.47
2018-05-18T10:31:58.810Z,1.60
2018-05-18T10:34:26.524Z,1.40
2018-05-18T10:36:54.148Z,1.50
2018-05-18T10:39:21.729Z,1.50
2018-05-18T10:41:49.356Z,1.40
2018-05-18T10:44:16.917Z,1.10
2018-05-18T10:46:44.488Z,1.60
2018-05-18T10:49:12.113Z,1.10
2018-05-18T10:51:39.813Z,1.30
2018-05-18T10:54:07.381Z,1.20
2018-05-18T10:56:34.956Z,1.30
2018-05-18T10:59:02.538Z,1.63
2018-05-18T11:01:30.088Z,1.20
2018-05-18T11:03:57.660Z,1.13
2018-05-18T11:06:25.229Z,1.53
2018-05-18T11:08:52.909Z,1.50
2018-05-18T11:11:20.468Z,1.33
2018-05-18T11:13:48.072Z,1.70
2018-05-18T11:16:15.639Z,1.63
2018-05-18T11:18:43.267Z,1.40
2018-05-18T11:21:10.871Z,1.60
2018-05-18T11:23:38.425Z,1.80
2018-05-18T11:26:06.050Z,1.77
2018-05-18T11:28:33.621Z,1.37
2018-05-18T11:31:01.176Z,1.30
2018-05-18T11:33:28.788Z,1.60
2018-05-18T11:35:56.405Z,2.23
2018-05-18T11:38:23.965Z,1.53
2018-05-18T11:40:51.628Z,1.37
2018-05-18T11:43:19.249Z,1.37
2018-05-18T11:45:46.921Z,1.47
2018-05-18T11:48:14.542Z,1.70
2018-05-18T11:50:42.101Z,1.70
2018-05-18T11:53:09.670Z,1.70
2018-05-18T11:55:37.304Z,1.27
2018-05-18T11:58:04.932Z,1.27
2018-05-18T12:00:32.577Z,1.58
2018-05-18T12:03:00.180Z,1.50
2018-05-18T12:05:27.740Z,1.33
2018-05-18T12:07:55.308Z,1.60
2018-05-18T12:10:22.880Z,1.10
2018-05-18T12:12:50.436Z,1.30
2018-05-18T12:15:18.060Z,1.52
2018-05-18T12:17:45.634Z,1.45
2018-05-18T12:20:13.258Z,1.55
2018-05-18T12:22:40.820Z,1.40
2018-05-18T12:25:08.388Z,1.48
2018-05-18T12:27:35.960Z,1.40
2018-05-18T12:30:03.544Z,1.00
2018-05-18T12:32:31.186Z,1.40
2018-05-18T12:34:58.744Z,1.23
2018-05-18T12:37:26.522Z,1.42
2018-05-18T12:39:54.098Z,1.70
2018-05-18T12:42:21.665Z,1.40
2018-05-18T12:44:49.302Z,1.30
2018-05-18T12:47:16.865Z,1.25
2018-05-18T12:49:44.432Z,1.67
2018-05-18T12:52:12.150Z,1.42
2018-05-18T12:54:39.760Z,1.67
2018-05-18T12:57:07.324Z,1.20
2018-05-18T12:59:34.959Z,1.02
2018-05-18T13:02:02.492Z,1.70
2018-05-18T13:04:30.049Z,1.58
2018-05-18T13:06:57.630Z,1.50
2018-05-18T13:09:25.184Z,1.80
2018-05-18T13:11:52.800Z,1.60
2018-05-18T13:14:20.418Z,1.80
2018-05-18T13:16:47.984Z,1.90
2018-05-18T13:19:15.560Z,2.07
2018-05-18T13:21:43.120Z,2.63
2018-05-18T13:24:10.763Z,2.00
2018-05-18T13:26:38.429Z,2.07
2018-05-18T13:29:06.052Z,2.20
2018-05-18T13:31:34.678Z,2.00
2018-05-18T13:34:02.256Z,1.87
2018-05-18T13:36:29.880Z,2.20
2018-05-18T13:38:57.436Z,2.43
2018-05-18T13:41:25.061Z,2.30
2018-05-18T13:43:52.649Z,1.90
2018-05-18T13:46:20.260Z,1.48
2018-05-18T13:48:47.815Z,1.20
2018-05-18T13:51:15.378Z,1.45
2018-05-18T13:53:42.944Z,1.65
2018-05-18T13:56:10.560Z,1.60
2018-05-18T13:58:38.226Z,1.80
2018-05-18T14:01:05.773Z,2.37
2018-05-18T14:03:33.397Z,2.10
2018-05-18T14:06:00.952Z,2.47
2018-05-18T14:08:28.513Z,2.60
2018-05-18T14:10:56.162Z,1.60
2018-05-18T14:13:23.781Z,2.90
2018-05-18T14:15:51.975Z,2.40
2018-05-18T14:18:19.616Z,2.03
2018-05-18T14:20:47.233Z,2.00
2018-05-18T14:23:14.804Z,2.00
2018-05-18T14:25:42.421Z,2.07
2018-05-18T14:28:10.050Z,4.00
2018-05-18T14:30:37.661Z,2.10
2018-05-18T14:33:05.354Z,1.93
2018-05-18T14:35:32.916Z,3.07
2018-05-18T14:38:00.640Z,2.33
2018-05-18T14:40:28.253Z,2.30
2018-05-18T14:42:55.932Z,4.90
2018-05-18T14:45:23.569Z,3.20
2018-05-18T14:47:51.189Z,2.03
2018-05-18T14:50:18.760Z,2.10
2018-05-18T14:52:46.336Z,2.80
2018-05-18T14:55:13.942Z,3.00
2018-05-18T14:57:41.504Z,2.23
2018-05-18T15:00:09.068Z,2.17
2018-05-18T15:02:36.692Z,2.20
2018-05-18T15:05:04.264Z,1.70
2018-05-18T15:07:31.894Z,2.57
2018-05-18T15:09:59.458Z,2.00
2018-05-18T15:12:27.230Z,2.13
2018-05-18T15:14:54.855Z,2.33
2018-05-18T15:17:22.480Z,2.00
2018-05-18T15:19:50.113Z,2.37
2018-05-18T15:22:17.733Z,2.10
2018-05-18T15:24:45.352Z,2.40
2018-05-18T15:27:12.974Z,2.27
2018-05-18T15:29:40.585Z,2.20
2018-05-18T15:32:08.141Z,2.60
2018-05-18T15:34:35.757Z,2.50
2018-05-18T15:37:03.405Z,3.10
2018-05-18T15:39:30.973Z,2.20
2018-05-18T15:41:58.541Z,2.23
2018-05-18T15:44:26.205Z,2.60
2018-05-18T15:46:53.832Z,2.60
2018-05-18T15:49:21.415Z,2.23
2018-05-18T15:51:49.010Z,2.20
2018-05-18T15:54:16.577Z,2.90
2018-05-18T15:56:44.128Z,3.17
2018-05-18T15:59:11.696Z,2.00
2018-05-18T16:01:39.309Z,2.30
2018-05-18T16:04:06.981Z,2.27
2018-05-18T16:06:34.536Z,2.30
2018-05-18T16:09:02.100Z,2.40
2018-05-18T16:11:29.680Z,2.53
2018-05-18T16:13:57.301Z,3.50
2018-05-18T16:16:24.945Z,2.40
2018-05-18T16:18:52.570Z,2.83
2018-05-18T16:21:20.229Z,1.80
2018-05-18T16:23:47.803Z,2.20
2018-05-18T16:26:15.479Z,2.37
2018-05-18T16:28:43.047Z,2.23
2018-05-18T16:31:10.617Z,2.50
2018-05-18T16:33:38.293Z,2.20
2018-05-18T16:36:05.925Z,2.37
2018-05-18T16:38:33.486Z,1.90
2018-05-18T16:41:01.052Z,2.27
2018-05-18T16:43:28.604Z,1.87
2018-05-18T16:45:56.225Z,2.10
2018-05-18T16:48:23.782Z,1.97
2018-05-18T16:50:51.441Z,2.17
2018-05-18T16:53:19.008Z,2.23
2018-05-18T16:55:46.644Z,2.83
2018-05-18T16:58:14.273Z,2.57
2018-05-18T17:00:41.900Z,2.60
2018-05-18T17:03:09.467Z,2.40
2018-05-18T17:05:37.094Z,2.03
2018-05-18T17:08:04.742Z,2.63
2018-05-18T17:10:32.308Z,2.33
2018-05-18T17:12:59.928Z,2.40
2018-05-18T17:15:27.607Z,1.97
2018-05-18T17:17:55.160Z,2.33
2018-05-18T17:20:22.816Z,2.83
2018-05-18T17:22:50.380Z,2.93
2018-05-18T17:25:18.002Z,2.80
2018-05-18T17:27:46.917Z,2.60
2018-05-18T17:30:14.487Z,2.70
2018-05-18T17:32:43.643Z,2.50
2018-05-18T17:35:11.237Z,2.80
2018-05-18T17:37:38.803Z,2.70
2018-05-18T17:40:06.436Z,3.33
2018-05-18T17:42:33.992Z,2.60
2018-05-18T17:45:01.600Z,3.13
2018-05-18T17:47:29.165Z,3.27
2018-05-18T17:49:56.917Z,2.50
2018-05-18T17:52:24.461Z,2.93
2018-05-18T17:54:52.088Z,3.13
2018-05-18T17:57:19.717Z,3.40
2018-05-18T17:59:47.268Z,3.27
2018-05-18T18:02:14.893Z,2.97
2018-05-18T18:04:42.468Z,3.10
2018-05-18T18:07:10.137Z,3.10
2018-05-18T18:09:37.688Z,2.90
2018-05-18T18:12:05.269Z,3.53
2018-05-18T18:14:32.841Z,3.53
2018-05-18T18:17:01.286Z,3.90
2018-05-18T18:19:28.912Z,3.30
2018-05-18T18:21:56.504Z,3.63
2018-05-18T18:24:24.185Z,2.73
2018-05-18T18:26:51.797Z,3.67
2018-05-18T18:29:19.357Z,4.40
2018-05-18T18:31:46.920Z,4.67
2018-05-18T18:34:14.457Z,4.90
2018-05-18T18:36:42.035Z,5.90
2018-05-18T18:39:09.578Z,5.77
2018-05-18T18:41:37.253Z,5.53
2018-05-18T18:44:04.820Z,6.40
2018-05-18T18:46:32.393Z,5.20
2018-05-18T18:48:59.968Z,4.57
2018-05-18T18:51:27.520Z,4.97
2018-05-18T18:53:55.088Z,4.80
2018-05-18T18:56:22.647Z,4.60
2018-05-18T18:58:50.395Z,4.90
2018-05-18T19:01:17.886Z,5.30
2018-05-18T19:03:45.456Z,6.50
2018-05-18T19:06:13.024Z,5.20
2018-05-18T19:08:40.649Z,4.60
2018-05-18T19:11:08.220Z,5.50
2018-05-18T19:13:35.779Z,6.80
2018-05-18T19:16:03.470Z,6.07
2018-05-18T19:18:31.071Z,4.70
2018-05-18T19:20:58.648Z,5.90
2018-05-18T19:23:26.298Z,5.53
2018-05-18T19:25:53.930Z,6.37
2018-05-18T19:28:21.581Z,5.37
2018-05-18T19:30:49.215Z,5.67
2018-05-18T19:33:16.853Z,5.50
2018-05-18T19:35:44.416Z,6.27
2018-05-18T19:38:12.036Z,5.40
2018-05-18T19:40:39.617Z,6.63
2018-05-18T19:43:07.185Z,5.60
2018-05-18T19:45:34.817Z,5.10
2018-05-18T19:48:02.395Z,4.90
2018-05-18T19:50:30.021Z,4.83
2018-05-18T19:52:57.654Z,5.03
2018-05-18T19:55:25.218Z,4.40
2018-05-18T19:57:52.801Z,4.60
2018-05-18T20:00:20.373Z,4.40
2018-05-18T20:02:48.003Z,5.63
2018-05-18T20:05:15.585Z,6.40
2018-05-18T20:07:43.257Z,6.30
2018-05-18T20:10:10.820Z,4.87
2018-05-18T20:12:38.381Z,5.63
2018-05-18T20:15:06.013Z,5.67
2018-05-18T20:17:33.649Z,15.20
2018-05-18T20:20:01.225Z,3.93
2018-05-18T20:22:28.784Z,4.83
2018-05-18T20:24:56.481Z,5.80
2018-05-18T20:27:24.007Z,4.70
2018-05-18T20:29:51.575Z,5.23
2018-05-18T20:32:19.199Z,4.93
2018-05-18T20:34:46.775Z,6.27
2018-05-18T20:37:14.357Z,5.17
2018-05-18T20:39:41.973Z,5.43
2018-05-18T20:42:09.662Z,5.40
2018-05-18T20:44:37.296Z,6.00
2018-05-18T20:47:04.885Z,5.10
2018-05-18T20:49:32.525Z,7.97
2018-05-18T20:52:00.096Z,5.70
2018-05-18T20:54:27.731Z,5.63
2018-05-18T20:56:55.307Z,5.53
2018-05-18T20:59:22.993Z,4.70
2018-05-18T21:01:50.606Z,4.47
2018-05-18T21:04:18.164Z,5.70
2018-05-18T21:06:45.743Z,4.57
2018-05-18T21:09:13.317Z,4.47
2018-05-18T21:11:40.892Z,6.23
2018-05-18T21:14:08.456Z,4.80
2018-05-18T21:16:36.141Z,4.30
2018-05-18T21:19:03.712Z,10.20
2018-05-18T21:21:31.338Z,5.23
2018-05-18T21:23:58.915Z,4.33
2018-05-18T21:26:26.529Z,5.57
2018-05-18T21:28:54.112Z,6.10
2018-05-18T21:31:21.697Z,5.23
2018-05-18T21:33:49.320Z,5.73
2018-05-18T21:36:16.937Z,5.47
2018-05-18T21:38:44.567Z,6.87
2018-05-18T21:41:12.160Z,7.27
2018-05-18T21:43:39.785Z,7.53
2018-05-18T21:46:07.393Z,9.00
2018-05-18T21:48:34.957Z,7.67
2018-05-18T21:51:02.586Z,8.90
2018-05-18T21:53:30.212Z,6.60
2018-05-18T21:55:57.886Z,6.83
2018-05-18T21:58:25.597Z,6.33
2018-05-18T22:00:53.177Z,6.97
2018-05-18T22:03:20.742Z,5.80
2018-05-18T22:05:48.384Z,6.03
2018-05-18T22:08:15.956Z,6.87
2018-05-18T22:10:43.594Z,6.30
2018-05-18T22:13:11.153Z,5.60
2018-05-18T22:15:38.800Z,6.83
2018-05-18T22:18:06.425Z,5.47
2018-05-18T22:20:34.002Z,7.57
2018-05-18T22:23:01.586Z,7.63
2018-05-18T22:25:29.221Z,7.80
2018-05-18T22:27:56.857Z,7.70
2018-05-18T22:30:24.428Z,7.90
2018-05-18T22:32:52.123Z,7.97
2018-05-18T22:35:19.762Z,8.37
2018-05-18T22:37:47.332Z,8.07
2018-05-18T22:40:14.885Z,8.60
2018-05-18T22:42:42.445Z,9.20
2018-05-18T22:45:10.026Z,7.03
2018-05-18T22:47:37.601Z,7.07
2018-05-18T22:50:05.176Z,9.20
2018-05-18T22:52:32.754Z,7.57
2018-05-18T22:55:00.316Z,7.37
2018-05-18T22:57:27.958Z,8.20
2018-05-18T22:59:55.528Z,6.53
2018-05-18T23:02:23.156Z,7.43
2018-05-18T23:04:50.781Z,7.70
2018-05-18T23:07:18.371Z,7.00
2018-05-18T23:09:45.944Z,6.30
2018-05-18T23:12:13.509Z,7.27
2018-05-18T23:14:41.084Z,7.67
2018-05-18T23:17:08.645Z,6.83
2018-05-18T23:19:36.342Z,7.87
2018-05-18T23:22:03.978Z,6.87
2018-05-18T23:24:31.603Z,7.77
2018-05-18T23:26:59.180Z,8.30
2018-05-18T23:29:26.754Z,7.63
2018-05-18T23:31:54.345Z,7.53
2018-05-18T23:34:21.926Z,8.23
2018-05-18T23:36:49.549Z,7.33
2018-05-18T23:39:17.176Z,6.80
2018-05-18T23:41:44.827Z,7.57
2018-05-18T23:44:12.405Z,7.00
2018-05-18T23:46:39.969Z,7.00
2018-05-18T23:49:07.549Z,7.50
2018-05-18T23:51:35.184Z,6.83
2018-05-18T23:54:02.869Z,8.10
2018-05-18T23:56:30.440Z,7.77
2018-05-18T23:58:58.087Z,7.27
